This is the latest recevied weather packets stored in our database for station/object IK8SUT-11. If no packets are shown the sender has not sent any weather packets the latest 10 day(s).
| Time | Temp. | Humidity | Pressure | Rain* | Wind** | Luminosity | Snow |
|---|---|---|---|---|---|---|---|
| 1777975683 | 20.56° C | 37% | 1008.7 hPa | - | - | - | - |
| 1777972959 | 20.56° C | 38% | 1008.4 hPa | - | - | - | - |
| 1777972060 | 20° C | 39% | 1008.6 hPa | - | - | - | - |
| 1777971159 | 20° C | 38% | 1008.5 hPa | - | - | - | - |
| 1777969348 | 19.44° C | 39% | 1008.6 hPa | - | - | - | - |
| 1777966631 | 18.89° C | 40% | 1008.6 hPa | - | - | - | - |
| 1777965755 | 18.89° C | 40% | 1008.7 hPa | - | - | - | - |
| 1777964828 | 18.89° C | 40% | 1008.6 hPa | - | - | - | - |
| 1777962076 | 18.33° C | 41% | 1008.5 hPa | - | - | - | - |
| 1777485531 | 25° C | 26% | 1006 hPa | - | - | - | - |
| 1777483857 | 26.11° C | 25% | 1005.8 hPa | - | - | - | - |
| 1777483730 | 26.11° C | 25% | 1005.8 hPa | - | - | - | - |
| 1777482830 | 27.22° C | 24% | 1005.8 hPa | - | - | - | - |
| 1777481456 | 29.44° C | 23% | 1005.7 hPa | - | - | - | - |
| 1777481030 | 29.44° C | 23% | 1005.7 hPa | - | - | - | - |
| 1777480130 | 28.89° C | 23% | 1005.7 hPa | - | - | - | - |
| 1777479223 | 28.89° C | 23% | 1005.7 hPa | - | - | - | - |
| 1777464781 | 22.78° C | 30% | 1006.7 hPa | - | - | - | - |
| 1777463920 | 22.78° C | 31% | 1006.7 hPa | - | - | - | - |
| 1777457602 | 20.56° C | 34% | 1006.9 hPa | - | - | - | - |
| 1777455802 | 21.11° C | 34% | 1007.2 hPa | - | - | - | - |
| 1777454907 | 21.11° C | 35% | 1007.2 hPa | - | - | - | - |
| 1777454007 | 21.11° C | 36% | 1007.1 hPa | - | - | - | - |
| 1777453115 | 20.56° C | 36% | 1007.1 hPa | - | - | - | - |
| 1777452207 | 20.56° C | 37% | 1007 hPa | - | - | - | - |
* Rain since midnight (hover to see other rain measurements)
** Current wind speed in m/s (hover to see current wind gust speed)